Eko 2 — SY9957 — position and weather

sailwx.info

Track history (hours):
 
Tides and Currents Weather Stations Pressure Air Temp Water Temp Dewpoint Dewpoint Depression Visibility Wind Speed Wind Dir Waves Ship Positions

Eko 2

Last reported at 2016-Jun-25 19:11 UTC. Time now 2016-Jun-28 07:54 UTC.
Position N 37°23' E 023°59'.

Length 89 m; draft 4.3 m.

Type: Ship (hazmat cat A). MMSI: 240827000.

Date/timePositionNaut miles runAvg speedWind from/ knotsBaromVisibWave heightAir tempDewpointWater temp
2016-Jun-25 19:11N 37°23' E 023°59'710.6
2016-Jun-25 18:33N 37°28' E 023°53'10 9.8
2016-Jun-25 17:33N 37°36' E 023°46'1010.1
2016-Jun-25 16:33N 37°45' E 023°40'1010.1
2016-Jun-25 15:33N 37°54' E 023°37'8 8.1
2016-Jun-25 14:33N 38°02' E 023°33'0 0.2
2016-Jun-25 13:28N 38°02' E 023°33'0 0.0
2016-Jun-25 12:31N 38°02' E 023°33'0 0.0
2016-Jun-25 11:31N 38°02' E 023°33'0 0.0
2016-Jun-25 10:28N 38°02' E 023°33'0 0.0
2016-Jun-25 09:31N 38°02' E 023°33'0 0.0
2016-Jun-25 08:28N 38°02' E 023°33'0 0.0
2016-Jun-25 07:31N 38°02' E 023°33'0 0.0
2016-Jun-25 06:31N 38°02' E 023°33'0 0.0
2016-Jun-25 05:25N 38°02' E 023°33'0 0.0
2016-Jun-25 04:28N 38°02' E 023°33'0 0.0
2016-Jun-25 03:31N 38°02' E 023°33'0 0.0
2016-Jun-25 02:31N 38°02' E 023°33'0 0.0
2016-Jun-25 01:31N 38°02' E 023°33'0 0.0
2016-Jun-25 00:33N 38°02' E 023°33'3 2.5
2016-Jun-24 23:32N 38°02' E 023°36'0 0.0
2016-Jun-24 22:29N 38°02' E 023°36'0 0.0
2016-Jun-24 21:29N 38°02' E 023°36'0 0.0
2016-Jun-24 20:32N 38°02' E 023°36'0 0.0
2016-Jun-24 19:32N 38°02' E 023°36'0 0.0
2016-Jun-24 18:29N 38°02' E 023°36'0 0.0
2016-Jun-24 17:29N 38°02' E 023°36'0 0.0
2016-Jun-24 16:32N 38°02' E 023°36'0 0.0
2016-Jun-24 15:29N 38°02' E 023°36'0 0.0
2016-Jun-24 14:32N 38°02' E 023°36'0 0.5
2016-Jun-24 13:33N 38°02' E 023°35'2 2.0
2016-Jun-24 12:32N 38°02' E 023°32'0 0.0
2016-Jun-24 11:32N 38°02' E 023°32'0 0.0
2016-Jun-24 10:32N 38°02' E 023°32'0 0.0
2016-Jun-24 09:32N 38°02' E 023°32'0 0.0
2016-Jun-24 08:32N 38°02' E 023°32'0 0.0
2016-Jun-24 07:32N 38°02' E 023°32'8 2.8
2016-Jun-24 04:33N 37°54' E 023°37'1010.3
2016-Jun-24 03:33N 37°45' E 023°43'1010.2
2016-Jun-24 02:33N 37°38' E 023°51'4410.3
2016-Jun-23 22:18N 37°24' E 024°44'811.1
2016-Jun-23 21:33N 37°20' E 024°53'1111.2
2016-Jun-23 20:33N 37°19' E 025°07'1111.0
2016-Jun-23 19:33N 37°17' E 025°21'1510.6
2016-Jun-23 18:06N 37°15' E 025°40'5 9.4
2016-Jun-23 17:33N 37°14' E 025°46'  
2016-Jun-18 15:19N 37°04' E 025°00'1111.1
2016-Jun-18 14:21N 37°10' E 025°11'911.0
2016-Jun-18 13:33N 37°14' E 025°21'1111.1
2016-Jun-18 12:33N 37°20' E 025°33'13 0.4
2016-Jun-17 03:31N 37°28' E 025°19'0 0.0
2016-Jun-17 02:28N 37°28' E 025°20'0 0.0
2016-Jun-17 01:31N 37°28' E 025°20'0 0.0
2016-Jun-17 00:31N 37°28' E 025°20'0 0.0
2016-Jun-16 23:31N 37°28' E 025°20'0 0.0
2016-Jun-16 22:31N 37°28' E 025°20'0 0.0
2016-Jun-16 21:28N 37°28' E 025°20'0 0.0
2016-Jun-16 20:31N 37°28' E 025°20'0 0.0
2016-Jun-16 19:31N 37°28' E 025°20'0 0.0
2016-Jun-16 18:31N 37°28' E 025°20'0 0.0
2016-Jun-16 17:31N 37°28' E 025°20'0 0.0
2016-Jun-16 16:31N 37°28' E 025°20'0 0.0
2016-Jun-16 15:34N 37°28' E 025°20'0 0.0
2016-Jun-16 14:33N 37°28' E 025°19'4 3.9
2016-Jun-16 13:33N 37°27' E 025°15'  
Track history (hours):
 
Tides and Currents Weather Stations Pressure Air Temp Water Temp Dewpoint Dewpoint Depression Visibility Wind Speed Wind Dir Waves Ship Positions

Eko 2

Last reported at 2016-Jun-25 19:11 UTC. Time now 2016-Jun-28 07:54 UTC.
Position N 37°23' E 023°59'.

Length 89 m; draft 4.3 m.

Type: Ship (hazmat cat A). MMSI: 240827000.

Date/timePositionNaut miles runAvg speedWind from/ knotsBaromVisibWave heightAir tempDewpointWater temp
2016-Jun-25 19:11N 37°23' E 023°59'710.6
2016-Jun-25 18:33N 37°28' E 023°53'10 9.8
2016-Jun-25 17:33N 37°36' E 023°46'1010.1
2016-Jun-25 16:33N 37°45' E 023°40'1010.1
2016-Jun-25 15:33N 37°54' E 023°37'8 8.1
2016-Jun-25 14:33N 38°02' E 023°33'0 0.2
2016-Jun-25 13:28N 38°02' E 023°33'0 0.0
2016-Jun-25 12:31N 38°02' E 023°33'0 0.0
2016-Jun-25 11:31N 38°02' E 023°33'0 0.0
2016-Jun-25 10:28N 38°02' E 023°33'0 0.0
2016-Jun-25 09:31N 38°02' E 023°33'0 0.0
2016-Jun-25 08:28N 38°02' E 023°33'0 0.0
2016-Jun-25 07:31N 38°02' E 023°33'0 0.0
2016-Jun-25 06:31N 38°02' E 023°33'0 0.0
2016-Jun-25 05:25N 38°02' E 023°33'0 0.0
2016-Jun-25 04:28N 38°02' E 023°33'0 0.0
2016-Jun-25 03:31N 38°02' E 023°33'0 0.0
2016-Jun-25 02:31N 38°02' E 023°33'0 0.0
2016-Jun-25 01:31N 38°02' E 023°33'0 0.0
2016-Jun-25 00:33N 38°02' E 023°33'3 2.5
2016-Jun-24 23:32N 38°02' E 023°36'0 0.0
2016-Jun-24 22:29N 38°02' E 023°36'0 0.0
2016-Jun-24 21:29N 38°02' E 023°36'0 0.0
2016-Jun-24 20:32N 38°02' E 023°36'0 0.0
2016-Jun-24 19:32N 38°02' E 023°36'0 0.0
2016-Jun-24 18:29N 38°02' E 023°36'0 0.0
2016-Jun-24 17:29N 38°02' E 023°36'0 0.0
2016-Jun-24 16:32N 38°02' E 023°36'0 0.0
2016-Jun-24 15:29N 38°02' E 023°36'0 0.0
2016-Jun-24 14:32N 38°02' E 023°36'0 0.5
2016-Jun-24 13:33N 38°02' E 023°35'2 2.0
2016-Jun-24 12:32N 38°02' E 023°32'0 0.0
2016-Jun-24 11:32N 38°02' E 023°32'0 0.0
2016-Jun-24 10:32N 38°02' E 023°32'0 0.0
2016-Jun-24 09:32N 38°02' E 023°32'0 0.0
2016-Jun-24 08:32N 38°02' E 023°32'0 0.0
2016-Jun-24 07:32N 38°02' E 023°32'8 2.8
2016-Jun-24 04:33N 37°54' E 023°37'1010.3
2016-Jun-24 03:33N 37°45' E 023°43'1010.2
2016-Jun-24 02:33N 37°38' E 023°51'4410.3
2016-Jun-23 22:18N 37°24' E 024°44'811.1
2016-Jun-23 21:33N 37°20' E 024°53'1111.2
2016-Jun-23 20:33N 37°19' E 025°07'1111.0
2016-Jun-23 19:33N 37°17' E 025°21'1510.6
2016-Jun-23 18:06N 37°15' E 025°40'5 9.4
2016-Jun-23 17:33N 37°14' E 025°46'  
2016-Jun-18 15:19N 37°04' E 025°00'1111.1
2016-Jun-18 14:21N 37°10' E 025°11'911.0
2016-Jun-18 13:33N 37°14' E 025°21'1111.1
2016-Jun-18 12:33N 37°20' E 025°33'13 0.4
2016-Jun-17 03:31N 37°28' E 025°19'0 0.0
2016-Jun-17 02:28N 37°28' E 025°20'0 0.0
2016-Jun-17 01:31N 37°28' E 025°20'0 0.0
2016-Jun-17 00:31N 37°28' E 025°20'0 0.0
2016-Jun-16 23:31N 37°28' E 025°20'0 0.0
2016-Jun-16 22:31N 37°28' E 025°20'0 0.0
2016-Jun-16 21:28N 37°28' E 025°20'0 0.0
2016-Jun-16 20:31N 37°28' E 025°20'0 0.0
2016-Jun-16 19:31N 37°28' E 025°20'0 0.0
2016-Jun-16 18:31N 37°28' E 025°20'0 0.0
2016-Jun-16 17:31N 37°28' E 025°20'0 0.0
2016-Jun-16 16:31N 37°28' E 025°20'0 0.0
2016-Jun-16 15:34N 37°28' E 025°20'0 0.0
2016-Jun-16 14:33N 37°28' E 025°19'4 3.9
2016-Jun-16 13:33N 37°27' E 025°15'  

Dump ship's entire track history